Time,TemperatureF,DewpointF,PressureIn,WindDirection,WindDirectionDegrees,WindSpeedMPH,WindSpeedGustMPH,Humidity,HourlyPrecipIn,Conditions,Clouds,dailyrainin,SolarRadiationWatts/m^2,SoftwareType,DateUTC
2013-02-02 00:02:00,32.0,32.0,-100.00,NNE,27,1.0,2.0,100,-99.99,,,0.00,0.000000,,2013-02-02 07:02:00,
2013-02-02 00:11:00,32.0,32.0,-100.00,NNE,27,1.0,2.0,100,-99.99,,,0.00,0.000000,,2013-02-02 07:11:00,
2013-02-02 00:41:00,29.0,29.0,-100.00,ESE,105,1.0,3.0,100,-99.99,,,0.00,0.000000,,2013-02-02 07:41:00,
2013-02-02 00:52:00,29.0,29.0,-100.00,ESE,105,1.0,3.0,100,-99.99,,,0.00,0.000000,,2013-02-02 07:52:00,
2013-02-02 01:01:00,29.0,29.0,-100.00,ESE,105,1.0,3.0,100,-99.99,,,0.00,0.000000,,2013-02-02 08:01:00,
2013-02-02 01:11:00,29.0,29.0,-100.00,ESE,105,1.0,3.0,100,-99.99,,,0.00,0.000000,,2013-02-02 08:11:00,
2013-02-02 02:41:00,28.0,28.0,-100.00,NNW,348,2.0,4.0,100,-99.99,,,-99.99,0.000000,,2013-02-02 09:41:00,
2013-02-02 02:52:00,28.0,28.0,-100.00,NNW,348,2.0,4.0,100,-99.99,,,-99.99,0.000000,,2013-02-02 09:52:00,
2013-02-02 03:01:00,28.0,28.0,-100.00,NNW,348,2.0,4.0,100,-99.99,,,-99.99,0.000000,,2013-02-02 10:01:00,
2013-02-02 03:11:00,28.0,28.0,-100.00,NNW,348,2.0,4.0,100,-99.99,,,-99.99,0.000000,,2013-02-02 10:11:00,
2013-02-02 03:41:00,30.0,30.0,-100.00,NNW,327,3.0,5.0,100,-99.99,,,0.00,0.000000,,2013-02-02 10:41:00,
2013-02-02 03:52:00,30.0,30.0,-100.00,NNW,327,3.0,5.0,100,-99.99,,,0.00,0.000000,,2013-02-02 10:52:00,
2013-02-02 04:01:00,30.0,30.0,-100.00,NNW,327,3.0,5.0,100,-99.99,,,0.00,0.000000,,2013-02-02 11:01:00,
2013-02-02 04:11:00,30.0,30.0,-100.00,NNW,327,3.0,5.0,100,-99.99,,,0.00,0.000000,,2013-02-02 11:11:00,
2013-02-02 04:41:00,31.0,31.0,-100.00,West,274,0.0,0.0,100,-99.99,,,0.00,0.000000,,2013-02-02 11:41:00,
2013-02-02 04:52:00,31.0,31.0,-100.00,West,274,0.0,0.0,100,-99.99,,,0.00,0.000000,,2013-02-02 11:52:00,
2013-02-02 05:01:00,31.0,31.0,-100.00,West,274,0.0,0.0,100,-99.99,,,0.00,0.000000,,2013-02-02 12:01:00,
2013-02-02 05:11:00,31.0,31.0,-100.00,West,274,0.0,0.0,100,-99.99,,,0.00,0.000000,,2013-02-02 12:11:00,
2013-02-02 05:32:00,30.0,30.0,-100.00,North,0,0.0,0.0,100,-99.99,,,-99.99,0.000000,,2013-02-02 12:32:00,
2013-02-02 05:42:00,30.0,30.0,-100.00,North,0,0.0,0.0,100,-99.99,,,-99.99,0.000000,,2013-02-02 12:42:00,
2013-02-02 05:52:00,30.0,30.0,-100.00,North,0,0.0,0.0,100,-99.99,,,-99.99,0.000000,,2013-02-02 12:52:00,
2013-02-02 06:02:00,30.0,30.0,-100.00,North,0,0.0,0.0,100,-99.99,,,-99.99,0.000000,,2013-02-02 13:02:00,
2013-02-02 06:11:00,30.0,30.0,-100.00,North,0,0.0,0.0,100,-99.99,,,-99.99,0.000000,,2013-02-02 13:11:00,
2013-02-02 06:32:00,29.0,29.0,-100.00,ESE,118,1.0,2.0,100,-99.99,,,0.00,0.000000,,2013-02-02 13:32:00,
2013-02-02 06:42:00,29.0,29.0,-100.00,ESE,118,1.0,2.0,100,-99.99,,,0.00,0.000000,,2013-02-02 13:42:00,
2013-02-02 06:52:00,29.0,29.0,-100.00,ESE,118,1.0,2.0,100,-99.99,,,0.00,0.000000,,2013-02-02 13:52:00,
2013-02-02 07:02:00,29.0,29.0,-100.00,ESE,118,1.0,2.0,100,-99.99,,,0.00,0.000000,,2013-02-02 14:02:00,
2013-02-02 07:11:00,29.0,29.0,-100.00,ESE,118,1.0,2.0,100,-99.99,,,0.00,0.000000,,2013-02-02 14:11:00,
2013-02-02 07:42:00,29.0,29.0,-100.00,ESE,118,0.0,1.0,100,-99.99,,,0.00,0.000000,,2013-02-02 14:42:00,
2013-02-02 07:52:00,29.0,29.0,-100.00,ESE,118,0.0,1.0,100,-99.99,,,0.00,0.000000,,2013-02-02 14:52:00,
2013-02-02 08:02:00,29.0,29.0,-100.00,ESE,118,0.0,1.0,100,-99.99,,,0.00,0.000000,,2013-02-02 15:02:00,
2013-02-02 08:11:00,29.0,29.0,-100.00,ESE,118,0.0,1.0,100,-99.99,,,0.00,0.000000,,2013-02-02 15:11:00,
2013-02-02 08:42:00,30.0,30.0,-100.00,NNW,347,2.0,3.0,100,-99.99,,,0.00,23.129999,,2013-02-02 15:42:00,
2013-02-02 08:52:00,30.0,30.0,-100.00,NNW,347,2.0,3.0,100,-99.99,,,0.00,23.129999,,2013-02-02 15:52:00,
2013-02-02 09:02:00,30.0,30.0,-100.00,NNW,347,2.0,3.0,100,-99.99,,,0.00,23.129999,,2013-02-02 16:02:00,
2013-02-02 09:11:00,30.0,30.0,-100.00,NNW,347,2.0,3.0,100,-99.99,,,0.00,23.129999,,2013-02-02 16:11:00,
2013-02-02 09:42:00,30.0,30.0,-100.00,NE,54,4.0,6.0,100,-99.99,,,0.00,132.839996,,2013-02-02 16:42:00,
2013-02-02 09:52:00,30.0,30.0,-100.00,NE,54,4.0,6.0,100,-99.99,,,0.00,132.839996,,2013-02-02 16:52:00,
2013-02-02 10:02:00,30.0,30.0,-100.00,NE,54,4.0,6.0,100,-99.99,,,0.00,132.839996,,2013-02-02 17:02:00,
2013-02-02 10:11:00,30.0,30.0,-100.00,NE,54,4.0,6.0,100,-99.99,,,0.00,132.839996,,2013-02-02 17:11:00,
2013-02-02 10:32:00,31.0,31.0,-100.00,NNE,21,5.0,8.0,99,-99.99,,,-99.99,264.399994,,2013-02-02 17:32:00,
2013-02-02 10:41:00,31.0,31.0,-100.00,NNE,21,5.0,8.0,99,-99.99,,,-99.99,264.399994,,2013-02-02 17:41:00,
2013-02-02 10:52:00,31.0,31.0,-100.00,NNE,21,5.0,8.0,99,-99.99,,,-99.99,264.399994,,2013-02-02 17:52:00,
2013-02-02 11:02:00,31.0,31.0,-100.00,NNE,21,5.0,8.0,99,-99.99,,,-99.99,264.399994,,2013-02-02 18:02:00,
2013-02-02 11:11:00,31.0,31.0,-100.00,NNE,21,5.0,8.0,99,-99.99,,,-99.99,264.399994,,2013-02-02 18:11:00,
2013-02-02 11:42:00,33.0,30.0,-100.00,North,8,7.0,9.0,91,-99.99,,,0.00,506.489990,,2013-02-02 18:42:00,
2013-02-02 11:52:00,33.0,30.0,-100.00,North,8,7.0,9.0,91,-99.99,,,0.00,506.489990,,2013-02-02 18:52:00,
2013-02-02 12:01:00,33.0,30.0,-100.00,North,8,7.0,9.0,91,-99.99,,,0.00,506.489990,,2013-02-02 19:01:00,
2013-02-02 12:11:00,33.0,30.0,-100.00,North,8,7.0,9.0,91,-99.99,,,0.00,506.489990,,2013-02-02 19:11:00,
2013-02-02 12:41:00,34.0,31.0,-100.00,NNE,12,9.0,11.0,88,-99.99,,,0.00,575.640015,,2013-02-02 19:41:00,
2013-02-02 12:52:00,34.0,31.0,-100.00,NNE,12,9.0,11.0,88,-99.99,,,0.00,575.640015,,2013-02-02 19:52:00,
2013-02-02 13:01:00,34.0,31.0,-100.00,NNE,12,9.0,11.0,88,-99.99,,,0.00,575.640015,,2013-02-02 20:01:00,
2013-02-02 13:11:00,34.0,31.0,-100.00,NNE,12,9.0,11.0,88,-99.99,,,0.00,575.640015,,2013-02-02 20:11:00,
2013-02-02 13:32:00,34.0,31.0,-100.00,NNE,15,9.0,11.0,86,-99.99,,,0.00,580.979980,,2013-02-02 20:32:00,
2013-02-02 13:41:00,34.0,31.0,-100.00,NNE,15,9.0,11.0,86,-99.99,,,0.00,580.979980,,2013-02-02 20:41:00,
2013-02-02 13:52:00,34.0,31.0,-100.00,NNE,15,9.0,11.0,86,-99.99,,,0.00,580.979980,,2013-02-02 20:52:00,
2013-02-02 14:02:00,34.0,31.0,-100.00,NNE,15,9.0,11.0,86,-99.99,,,0.00,580.979980,,2013-02-02 21:02:00,
2013-02-02 14:11:00,34.0,31.0,-100.00,NNE,15,9.0,11.0,86,-99.99,,,0.00,580.979980,,2013-02-02 21:11:00,
2013-02-02 14:32:00,35.0,31.0,-100.00,NNE,23,9.0,12.0,86,-99.99,,,0.00,502.649994,,2013-02-02 21:32:00,
2013-02-02 14:42:00,35.0,31.0,-100.00,NNE,23,9.0,12.0,86,-99.99,,,0.00,502.649994,,2013-02-02 21:42:00,
2013-02-02 14:52:00,35.0,31.0,-100.00,NNE,23,9.0,12.0,86,-99.99,,,0.00,502.649994,,2013-02-02 21:52:00,
2013-02-02 15:02:00,35.0,31.0,-100.00,NNE,23,9.0,12.0,86,-99.99,,,0.00,502.649994,,2013-02-02 22:02:00,
2013-02-02 15:11:00,35.0,31.0,-100.00,NNE,23,9.0,12.0,86,-99.99,,,0.00,502.649994,,2013-02-02 22:11:00,
2013-02-02 15:32:00,35.0,30.0,-100.00,NNE,31,11.0,14.0,84,-99.99,,,0.00,389.100006,,2013-02-02 22:32:00,
2013-02-02 15:42:00,35.0,30.0,-100.00,NNE,31,11.0,14.0,84,-99.99,,,0.00,389.100006,,2013-02-02 22:42:00,
2013-02-02 15:52:00,35.0,30.0,-100.00,NNE,31,11.0,14.0,84,-99.99,,,0.00,389.100006,,2013-02-02 22:52:00,
2013-02-02 16:01:00,35.0,30.0,-100.00,NNE,31,11.0,14.0,84,-99.99,,,0.00,389.100006,,2013-02-02 23:01:00,
2013-02-02 16:11:00,35.0,30.0,-100.00,NNE,31,11.0,14.0,84,-99.99,,,0.00,389.100006,,2013-02-02 23:11:00,
2013-02-02 17:11:00,34.0,30.0,-100.00,NNE,31,11.0,14.0,86,-99.99,,,0.00,247.550003,,2013-02-03 00:11:00,
2013-02-02 18:11:00,32.0,29.0,-100.00,NNE,26,10.0,13.0,89,-99.99,,,0.00,71.010002,,2013-02-03 01:11:00,
2013-02-02 19:11:00,29.0,28.0,-100.00,NNE,25,8.0,9.0,94,-99.99,,,0.00,0.120000,,2013-02-03 02:11:00,
2013-02-02 20:11:00,27.0,26.0,-100.00,NNE,16,7.0,9.0,96,-99.99,,,0.00,0.000000,,2013-02-03 03:11:00,
2013-02-02 21:11:00,26.0,25.0,-100.00,NNE,26,8.0,11.0,98,-99.99,,,0.00,0.000000,,2013-02-03 04:11:00,
2013-02-02 21:42:00,25.0,25.0,-100.00,NNE,23,8.0,11.0,100,-99.99,,,0.00,0.000000,,2013-02-03 04:42:00,
2013-02-02 21:52:00,25.0,25.0,-100.00,NNE,23,8.0,11.0,100,-99.99,,,0.00,0.000000,,2013-02-03 04:52:00,
2013-02-02 22:03:00,25.0,25.0,-100.00,NNE,23,8.0,11.0,100,-99.99,,,0.00,0.000000,,2013-02-03 05:03:00,
2013-02-02 22:11:00,25.0,25.0,-100.00,NNE,23,8.0,11.0,100,-99.99,,,0.00,0.000000,,2013-02-03 05:11:00,
2013-02-02 22:41:00,28.0,28.0,-100.00,NE,41,9.0,13.0,100,-99.99,,,0.00,0.000000,,2013-02-03 05:41:00,
2013-02-02 22:52:00,28.0,28.0,-100.00,NE,41,9.0,13.0,100,-99.99,,,0.00,0.000000,,2013-02-03 05:52:00,
2013-02-02 23:02:00,28.0,28.0,-100.00,NE,41,9.0,13.0,100,-99.99,,,0.00,0.000000,,2013-02-03 06:02:00,
2013-02-02 23:11:00,28.0,28.0,-100.00,NE,41,9.0,13.0,100,-99.99,,,0.00,0.000000,,2013-02-03 06:11:00,
2013-02-02 23:41:00,25.0,25.0,-100.00,ENE,57,5.0,8.0,100,-99.99,,,0.00,0.000000,,2013-02-03 06:41:00,
2013-02-02 23:52:00,25.0,25.0,-100.00,ENE,57,5.0,8.0,100,-99.99,,,0.00,0.000000,,2013-02-03 06:52:00,